Briefing drone pour Bourg-achard

Rechercher une autre localisation

Conditions de vol :


Nous sommes le : Lundi 21 septembre 2020
Il est 00:31 UTC (02:31 LT)

Lever de soleil : 05:16 UTC (07:16 LT)
Coucher de soleil : 18:23 UTC (20:23 LT)

Météo

L'essentiel des conditions de vol

VIGILANCE MÉTÉO FRANCE - Eure (27)
Pas de vigilances particulieres
CARTE TEMSI
CARTES DES FRONTS
METAR de LFOP
LFOP 210000Z AUTO 05001KT CAVOK 14/12 Q1016

Date d'émission: 21/09/2020
Heure d'émission: 00:00 UTC
Vent: 050° pour 1 KT (2 km/h)
Visibilité horizontale: > 10 km
Plafond : Plafond et visibilité OK (CAVOK)
Température: 14 °C
Point de rosée: 12 °C
Humidité: 88%
Pression (QNH): 1016 hPa
TAF de LFOP
LFOP 202001Z 2020/2118 CNL

Conditions prévues :

Heure d'émission : Bulletin éffectué le 20 à 20:00 UTC
Prévision : Valide du 20 a 20:00 UTC au 21 a 18:00 UTC
Nuages : à 0ft (0 m)
WEBCAM POUR BOURG-ACHARD

Réglementation

Voler en sécurité

CARTES AERONAUTIQUE 1/500.000
CARTES VAC (LFOP)
SUP AIP




Chargement des AIP...
NOTAM (BOURG-ACHARD + Terrain à proximité / FIR )




Chargement des NOTAMS...
CONTACT PREFECTURE 27


Avertissement : Les données mises à disposition sont indicatives. Oxygène Drone ne pourra être tenu responsable de dégâts causés aux biens et aux personnes.